PABR METAR and TAF weather

Enter ICAO airport designator
Station Type Date Time Source
PABR METAR 2020/10/20 16:53 UTC NOAA

PABR 201653Z 19006KT 10SM OVC030 M02/M04 A3033 RMK AO2 SLP272 T10171039


Station Type Date Time Source
PABR Decoded METAR 2020/10/20 16:53 UTC NOAA

POST ROGERS MEMORIAL AIRPORT, AK, United States (PABR) 71-17N 156-46W 10M
Oct 20, 2020 - 12:53 PM EDT / 2020.10.20 1653 UTC
Wind: from the S (190 degrees) at 7 MPH (6 KT):0
Visibility: 10 mile(s):0
Sky conditions: overcast
Temperature: 28.9 F (-1.7 C)
Windchill: 21 F (-6 C):1
Dew Point: 25.0 F (-3.9 C)
Relative Humidity: 84%
Pressure (altimeter): 30.33 in. Hg (1027 hPa)
ob: PABR 201653Z 19006KT 10SM OVC030 M02/M04 A3033 RMK AO2 SLP272 T10171039
cycle: 17

Station Type Date Time Source
PABR TAF 2020/10/20 12:33 UTC NOAA

TAF PABR 201130Z 2012/2112 23011KT P6SM OVC035
FM201900 24014KT P6SM VCSH OVC015
FM202200 24015KT 4SM BR OVC007

Example: see airport list